Crestmore, California
Current Conditions -  °F | °C
As of 9:53 AM on Saturday 25 Oct 2014 (Local Time) from KRAL Reporting Station
Clear Clear  
Wind Chill: 72°   Ceiling: Unl
Heat Index: 72°   Visibility: 10mi
Dew Point: 42°   Wind: 3mph
Humidity: 34%   Direction: 210°SSW
Pressure: 30.07"   Gusts: NA
Location:  34.0579°N, 117.395°W
Report Text: KRAL 251653Z 21003KT 10SM CLR 22/06 A3007 RMK AO2 SLP166 T02220056
Loading
Personal Weather Stations






























Interactive Weather Map
Tropical Storm Tracking
New forecast layout! Learn more

10-Day Weather Forecast

Advertisements
Track Severe Weather on mobile